createdAt,value
2023-04-30T00:00:14.755Z,63.86
2023-04-30T00:01:14.771Z,63.50
2023-04-30T00:02:14.817Z,63.98
2023-04-30T00:03:14.826Z,63.46
2023-04-30T00:04:14.857Z,63.68
2023-04-30T00:05:14.700Z,67.68
2023-04-30T00:06:14.757Z,66.67
2023-04-30T00:07:14.690Z,65.02
2023-04-30T00:08:14.661Z,65.01
2023-04-30T00:09:14.668Z,60.82
2023-04-30T00:10:14.660Z,61.89
2023-04-30T00:11:14.659Z,64.64
2023-04-30T00:12:14.638Z,65.11
2023-04-30T00:13:14.613Z,62.46
2023-04-30T00:14:14.606Z,65.20
2023-04-30T00:15:15.592Z,65.18
2023-04-30T00:16:14.627Z,65.43
2023-04-30T00:17:14.576Z,64.24
2023-04-30T00:18:14.564Z,64.50
2023-04-30T00:19:14.552Z,66.77
2023-04-30T00:20:14.555Z,64.33
2023-04-30T00:21:14.559Z,64.08
2023-04-30T00:22:14.521Z,65.10
2023-04-30T00:23:14.501Z,64.98
2023-04-30T00:24:14.498Z,65.77
2023-04-30T00:25:14.485Z,64.99
2023-04-30T00:26:14.516Z,64.15
2023-04-30T00:27:14.463Z,65.80
2023-04-30T00:28:14.456Z,65.69
2023-04-30T00:29:14.434Z,65.46
2023-04-30T00:30:14.447Z,61.80
2023-04-30T00:31:14.448Z,62.80
2023-04-30T00:32:14.569Z,63.06
2023-04-30T00:33:14.494Z,63.91
2023-04-30T00:34:14.377Z,63.82
2023-04-30T00:35:14.384Z,62.28
2023-04-30T00:36:14.407Z,63.13
2023-04-30T00:37:14.346Z,63.03
2023-04-30T00:38:14.339Z,61.61
2023-04-30T00:39:14.320Z,62.90
2023-04-30T00:40:14.312Z,64.59
2023-04-30T00:41:14.397Z,63.60
2023-04-30T00:42:14.298Z,61.80
2023-04-30T00:43:14.286Z,61.07
2023-04-30T00:44:14.272Z,63.60
2023-04-30T00:45:14.254Z,62.59
2023-04-30T00:46:14.322Z,63.86
2023-04-30T00:47:14.235Z,63.63
2023-04-30T00:48:14.225Z,64.07
2023-04-30T00:49:14.205Z,61.62
2023-04-30T00:50:14.206Z,59.61
2023-04-30T00:51:14.203Z,65.01
2023-04-30T00:52:14.174Z,61.64
2023-04-30T00:53:14.158Z,62.12
2023-04-30T00:54:14.155Z,64.07
2023-04-30T00:55:14.142Z,65.54
2023-04-30T00:56:14.160Z,65.32
2023-04-30T00:57:14.116Z,62.19
2023-04-30T00:58:14.117Z,63.68
2023-04-30T00:59:14.100Z,62.74
2023-04-30T01:00:14.098Z,60.62
2023-04-30T01:01:14.141Z,60.41
2023-04-30T01:02:14.079Z,62.87
2023-04-30T01:03:14.214Z,62.34
2023-04-30T01:04:14.039Z,64.55
2023-04-30T01:05:14.022Z,62.53
2023-04-30T01:06:15.110Z,62.37
2023-04-30T01:07:14.002Z,62.13
2023-04-30T01:08:13.993Z,61.33
2023-04-30T01:09:13.994Z,60.86
2023-04-30T01:10:13.971Z,61.73
2023-04-30T01:11:13.982Z,65.93
2023-04-30T01:12:14.025Z,66.02
2023-04-30T01:13:13.930Z,61.71
2023-04-30T01:14:13.934Z,62.98
2023-04-30T01:15:13.912Z,58.66
2023-04-30T01:16:14.011Z,61.90
2023-04-30T01:17:13.891Z,62.93
2023-04-30T01:18:13.960Z,59.05
2023-04-30T01:19:13.899Z,59.73
2023-04-30T01:20:13.863Z,62.77
2023-04-30T01:21:13.865Z,62.90
2023-04-30T01:22:13.833Z,62.23
2023-04-30T01:23:14.816Z,60.48
2023-04-30T01:24:13.811Z,63.09
2023-04-30T01:25:13.812Z,60.93
2023-04-30T01:26:13.820Z,60.94
2023-04-30T01:27:13.771Z,59.34
2023-04-30T01:28:13.770Z,60.72
2023-04-30T01:29:13.757Z,63.26
2023-04-30T01:30:13.742Z,58.89
2023-04-30T01:31:13.805Z,61.53
2023-04-30T01:32:13.707Z,59.27
2023-04-30T01:33:13.714Z,58.55
2023-04-30T01:34:13.706Z,58.92
2023-04-30T01:35:13.691Z,61.25
2023-04-30T01:36:13.747Z,62.14
2023-04-30T01:37:13.656Z,58.92
2023-04-30T01:38:13.659Z,62.02
2023-04-30T01:39:13.634Z,63.51
2023-04-30T01:40:13.645Z,61.73
2023-04-30T01:41:13.636Z,62.09
2023-04-30T01:42:13.608Z,61.84
2023-04-30T01:43:13.601Z,60.90
2023-04-30T01:44:13.582Z,61.82
2023-04-30T01:45:13.589Z,62.50
2023-04-30T01:46:13.651Z,61.26
2023-04-30T01:47:13.547Z,61.33
2023-04-30T01:48:13.536Z,62.46
2023-04-30T01:49:13.533Z,60.65
2023-04-30T01:50:13.512Z,62.97
2023-04-30T01:51:13.537Z,58.72
2023-04-30T01:52:13.518Z,57.07
2023-04-30T01:53:13.478Z,58.33
2023-04-30T01:54:13.471Z,60.81
2023-04-30T01:55:13.472Z,61.04
2023-04-30T01:56:13.471Z,60.46
2023-04-30T01:57:13.439Z,59.94
2023-04-30T01:58:13.422Z,62.90
2023-04-30T01:59:13.416Z,64.25
2023-04-30T02:00:13.408Z,59.91
2023-04-30T02:01:13.426Z,61.47
2023-04-30T02:02:13.401Z,59.02
2023-04-30T02:03:13.522Z,60.19
2023-04-30T02:04:13.393Z,61.79
2023-04-30T02:05:13.355Z,62.93
2023-04-30T02:06:13.377Z,61.50
2023-04-30T02:07:13.369Z,63.85
2023-04-30T02:08:13.326Z,61.55
2023-04-30T02:09:13.320Z,61.09
2023-04-30T02:10:13.303Z,61.38
2023-04-30T02:11:13.283Z,61.61
2023-04-30T02:12:13.286Z,61.32
2023-04-30T02:13:13.267Z,64.23
2023-04-30T02:14:13.243Z,63.06
2023-04-30T02:15:13.239Z,61.05
2023-04-30T02:16:13.286Z,58.84
2023-04-30T02:17:13.246Z,59.29
2023-04-30T02:18:13.226Z,58.09
2023-04-30T02:19:13.184Z,62.96
2023-04-30T02:20:13.184Z,61.70
2023-04-30T02:21:13.168Z,59.08
2023-04-30T02:22:13.206Z,57.22
2023-04-30T02:23:13.139Z,58.15
2023-04-30T02:24:13.158Z,59.25
2023-04-30T02:25:13.132Z,59.20
2023-04-30T02:26:13.119Z,61.23
2023-04-30T02:27:13.128Z,59.58
2023-04-30T02:28:13.087Z,62.90
2023-04-30T02:29:13.110Z,59.26
2023-04-30T02:30:13.079Z,59.56
2023-04-30T02:31:13.077Z,61.43
2023-04-30T02:32:13.425Z,62.09
2023-04-30T02:33:13.053Z,63.76
2023-04-30T02:34:13.033Z,58.96
2023-04-30T02:35:13.023Z,60.65
2023-04-30T02:36:13.016Z,58.98
2023-04-30T02:37:13.023Z,59.56
2023-04-30T02:38:13.044Z,62.07
2023-04-30T02:39:12.976Z,63.08
2023-04-30T02:40:12.982Z,59.79
2023-04-30T02:41:12.947Z,61.45
2023-04-30T02:42:12.981Z,63.07
2023-04-30T02:43:12.938Z,63.11
2023-04-30T02:44:12.928Z,62.62
2023-04-30T02:45:12.924Z,60.67
2023-04-30T02:46:12.941Z,60.95
2023-04-30T02:47:12.911Z,60.68
2023-04-30T02:48:12.875Z,61.13
2023-04-30T02:49:12.890Z,63.09
2023-04-30T02:50:12.865Z,60.85
2023-04-30T02:51:12.860Z,60.53
2023-04-30T02:52:12.858Z,59.09
2023-04-30T02:53:12.873Z,60.36
2023-04-30T02:54:12.812Z,59.94
2023-04-30T02:55:13.818Z,60.81
2023-04-30T02:56:12.815Z,64.93
2023-04-30T02:57:12.798Z,63.03
2023-04-30T02:58:12.783Z,62.16
2023-04-30T02:59:12.775Z,62.04
2023-04-30T03:00:12.762Z,60.94
2023-04-30T03:01:12.810Z,61.83
2023-04-30T03:02:12.779Z,61.70
2023-04-30T03:03:12.829Z,61.19
2023-04-30T03:04:12.715Z,65.56
2023-04-30T03:05:12.706Z,64.88
2023-04-30T03:06:12.761Z,61.44
2023-04-30T03:07:12.684Z,62.69
2023-04-30T03:08:12.690Z,62.67
2023-04-30T03:09:12.670Z,62.32
2023-04-30T03:10:12.660Z,62.85
2023-04-30T03:11:12.641Z,63.39
2023-04-30T03:12:12.643Z,64.25
2023-04-30T03:13:12.628Z,64.12
2023-04-30T03:14:12.621Z,63.35
2023-04-30T03:15:12.627Z,63.55
2023-04-30T03:16:12.628Z,63.08
2023-04-30T03:17:12.626Z,63.28
2023-04-30T03:18:12.612Z,59.46
2023-04-30T03:19:12.559Z,61.89
2023-04-30T03:20:12.545Z,62.73
2023-04-30T03:21:12.544Z,64.38
2023-04-30T03:22:12.549Z,66.74
2023-04-30T03:23:12.517Z,66.21
2023-04-30T03:24:12.523Z,61.72
2023-04-30T03:25:12.500Z,62.80
2023-04-30T03:26:12.508Z,63.88
2023-04-30T03:27:12.496Z,65.73
2023-04-30T03:28:12.467Z,64.54
2023-04-30T03:29:12.459Z,63.58
2023-04-30T03:30:12.452Z,65.47
2023-04-30T03:31:12.443Z,62.62
2023-04-30T03:32:12.442Z,64.61
2023-04-30T03:33:12.509Z,62.52
2023-04-30T03:34:12.413Z,61.92
2023-04-30T03:35:12.403Z,62.44
2023-04-30T03:36:12.405Z,63.97
2023-04-30T03:37:12.398Z,62.66
2023-04-30T03:38:12.387Z,63.67
2023-04-30T03:39:12.384Z,63.81
2023-04-30T03:40:12.359Z,63.75
2023-04-30T03:41:12.371Z,64.00
2023-04-30T03:42:12.325Z,64.64
2023-04-30T03:43:12.331Z,65.85
2023-04-30T03:44:13.309Z,67.21
2023-04-30T03:45:12.324Z,66.78
2023-04-30T03:46:12.308Z,66.90
2023-04-30T03:47:12.281Z,66.08
2023-04-30T03:48:12.340Z,68.18
2023-04-30T03:49:12.265Z,65.16
2023-04-30T03:50:12.256Z,65.63
2023-04-30T03:51:12.255Z,63.07
2023-04-30T03:52:12.246Z,67.53
2023-04-30T03:53:12.248Z,65.69
2023-04-30T03:54:12.220Z,68.14
2023-04-30T03:55:12.213Z,66.30
2023-04-30T03:56:12.197Z,64.96
2023-04-30T03:57:12.180Z,62.99
2023-04-30T03:58:12.204Z,66.40
2023-04-30T03:59:12.167Z,67.40
2023-04-30T04:00:12.201Z,67.66
2023-04-30T04:01:12.147Z,68.41
2023-04-30T04:02:12.173Z,68.24
2023-04-30T04:03:12.186Z,66.70
2023-04-30T04:04:12.187Z,66.35
2023-04-30T04:05:12.129Z,66.79
2023-04-30T04:06:44.060Z,66.76
2023-04-30T04:07:12.094Z,67.62
2023-04-30T04:08:12.258Z,65.88
2023-04-30T04:09:12.086Z,64.85
2023-04-30T04:10:12.062Z,66.84
2023-04-30T04:11:12.060Z,65.13
2023-04-30T04:12:12.088Z,65.87
2023-04-30T04:13:12.073Z,66.93
2023-04-30T04:14:12.043Z,65.29
2023-04-30T04:15:12.013Z,67.07
2023-04-30T04:16:12.098Z,66.10
2023-04-30T04:17:12.025Z,65.36
2023-04-30T04:18:12.011Z,64.93
2023-04-30T04:19:11.987Z,65.91
2023-04-30T04:20:13.815Z,68.13
2023-04-30T04:21:12.990Z,66.74
2023-04-30T04:22:11.970Z,67.24
2023-04-30T04:23:11.973Z,65.60
2023-04-30T04:24:11.954Z,62.66
2023-04-30T04:25:11.961Z,66.06
2023-04-30T04:26:11.941Z,67.94
2023-04-30T04:27:11.935Z,66.76
2023-04-30T04:28:11.945Z,65.47
2023-04-30T04:29:11.908Z,65.31
2023-04-30T04:30:11.904Z,63.92
2023-04-30T04:31:11.882Z,64.50
2023-04-30T04:32:11.865Z,66.66
2023-04-30T04:33:11.874Z,66.57
2023-04-30T04:34:11.843Z,65.46
2023-04-30T04:35:11.832Z,66.05
2023-04-30T04:36:11.829Z,66.57
2023-04-30T04:37:11.853Z,66.59
2023-04-30T04:38:11.827Z,67.28
2023-04-30T04:39:11.801Z,67.21
2023-04-30T04:40:11.799Z,64.23
2023-04-30T04:41:11.779Z,66.70
2023-04-30T04:42:11.798Z,67.08
2023-04-30T04:43:11.778Z,67.92
2023-04-30T04:44:11.771Z,68.46
2023-04-30T04:45:11.742Z,67.64
2023-04-30T04:46:14.241Z,65.90
2023-04-30T04:47:12.737Z,68.70
2023-04-30T04:48:11.715Z,68.19
2023-04-30T04:49:11.705Z,66.83
2023-04-30T04:50:11.684Z,66.38
2023-04-30T04:51:11.676Z,67.19
2023-04-30T04:52:11.663Z,68.16
2023-04-30T04:53:11.654Z,67.05
2023-04-30T04:54:11.670Z,67.64
2023-04-30T04:55:11.646Z,67.69
2023-04-30T04:56:11.640Z,68.40
2023-04-30T04:57:11.642Z,65.66
2023-04-30T04:58:11.608Z,65.07
2023-04-30T04:59:11.617Z,68.72
2023-04-30T05:00:11.585Z,66.42
2023-04-30T05:01:11.629Z,68.19
2023-04-30T05:02:11.616Z,65.85
2023-04-30T05:03:11.653Z,64.36
2023-04-30T05:04:11.565Z,66.96
2023-04-30T05:05:11.543Z,67.27
2023-04-30T05:06:12.601Z,66.69
2023-04-30T05:07:11.513Z,67.41
2023-04-30T05:08:11.507Z,66.05
2023-04-30T05:09:11.505Z,67.81
2023-04-30T05:10:11.495Z,66.65
2023-04-30T05:11:12.207Z,67.58
2023-04-30T05:12:11.482Z,68.72
2023-04-30T05:13:11.475Z,67.37
2023-04-30T05:14:11.472Z,66.48
2023-04-30T05:15:11.434Z,66.97
2023-04-30T05:16:11.464Z,65.69
2023-04-30T05:17:11.417Z,64.65
2023-04-30T05:18:11.411Z,64.61
2023-04-30T05:19:11.412Z,65.57
2023-04-30T05:20:11.383Z,64.94
2023-04-30T05:21:11.369Z,64.33
2023-04-30T05:22:11.367Z,63.97
2023-04-30T05:23:11.349Z,63.40
2023-04-30T05:24:11.353Z,64.56
2023-04-30T05:25:11.343Z,65.86
2023-04-30T05:26:11.360Z,65.74
2023-04-30T05:27:11.302Z,66.67
2023-04-30T05:28:11.292Z,64.42
2023-04-30T05:29:11.301Z,64.95
2023-04-30T05:30:11.274Z,63.48
2023-04-30T05:31:11.279Z,65.01
2023-04-30T05:32:11.335Z,66.10
2023-04-30T05:33:11.301Z,65.74
2023-04-30T05:34:11.236Z,65.31
2023-04-30T05:35:11.252Z,63.70
2023-04-30T05:36:11.205Z,64.20
2023-04-30T05:37:11.184Z,65.34
2023-04-30T05:38:11.173Z,64.27
2023-04-30T05:39:11.167Z,65.33
2023-04-30T05:40:11.170Z,64.22
2023-04-30T05:41:11.181Z,64.84
2023-04-30T05:42:11.152Z,63.85
2023-04-30T05:43:11.127Z,62.82
2023-04-30T05:44:11.120Z,64.52
2023-04-30T05:45:11.130Z,63.25
2023-04-30T05:46:11.135Z,63.19
2023-04-30T05:47:11.083Z,63.28
2023-04-30T05:48:11.089Z,66.37
2023-04-30T05:49:11.064Z,66.34
2023-04-30T05:50:11.024Z,65.32
2023-04-30T05:51:12.033Z,64.42
2023-04-30T05:52:11.002Z,65.12
2023-04-30T05:53:11.043Z,64.15
2023-04-30T05:54:11.034Z,64.60
2023-04-30T05:55:10.988Z,64.26
2023-04-30T05:56:11.010Z,63.02
2023-04-30T05:57:10.959Z,62.22
2023-04-30T05:58:10.941Z,64.77
2023-04-30T05:59:10.945Z,64.85
2023-04-30T06:00:10.923Z,66.08
2023-04-30T06:01:10.919Z,65.03
2023-04-30T06:02:10.920Z,64.08
2023-04-30T06:03:11.087Z,65.83
2023-04-30T06:04:10.931Z,65.64
2023-04-30T06:05:10.879Z,65.78
2023-04-30T06:06:10.876Z,64.01
2023-04-30T06:07:10.844Z,65.88
2023-04-30T06:08:10.843Z,65.27
2023-04-30T06:09:10.841Z,64.56
2023-04-30T06:10:10.824Z,63.64
2023-04-30T06:11:10.810Z,64.26
2023-04-30T06:12:10.810Z,62.82
2023-04-30T06:13:10.782Z,64.14
2023-04-30T06:14:10.783Z,64.76
2023-04-30T06:15:11.787Z,65.03
2023-04-30T06:16:10.773Z,63.75
2023-04-30T06:17:10.738Z,63.81
2023-04-30T06:18:10.727Z,63.37
2023-04-30T06:19:10.741Z,64.67
2023-04-30T06:20:10.719Z,65.54
2023-04-30T06:21:10.697Z,65.01
2023-04-30T06:22:10.732Z,64.62
2023-04-30T06:23:10.677Z,65.59
2023-04-30T06:24:10.683Z,65.07
2023-04-30T06:25:10.684Z,64.04
2023-04-30T06:26:10.638Z,65.12
2023-04-30T06:27:10.635Z,65.07
2023-04-30T06:28:10.637Z,66.19
2023-04-30T06:29:10.628Z,66.41
2023-04-30T06:30:10.653Z,66.92
2023-04-30T06:31:10.585Z,63.94
2023-04-30T06:32:11.588Z,65.31
2023-04-30T06:33:10.577Z,64.34
2023-04-30T06:34:10.570Z,64.48
2023-04-30T06:35:10.607Z,64.73
2023-04-30T06:36:10.590Z,63.55
2023-04-30T06:37:10.560Z,64.66
2023-04-30T06:38:10.530Z,62.94
2023-04-30T06:39:10.531Z,64.09
2023-04-30T06:40:10.494Z,64.29
2023-04-30T06:41:10.495Z,65.22
2023-04-30T06:42:10.501Z,65.22
2023-04-30T06:43:10.488Z,65.90
2023-04-30T06:44:10.476Z,66.74
2023-04-30T06:45:10.463Z,67.55
2023-04-30T06:46:10.464Z,65.95
2023-04-30T06:47:10.437Z,65.12
2023-04-30T06:48:10.456Z,64.19
2023-04-30T06:49:10.435Z,65.01
2023-04-30T06:50:10.399Z,66.56
2023-04-30T06:51:10.852Z,63.29
2023-04-30T06:52:11.383Z,64.79
2023-04-30T06:53:10.372Z,65.08
2023-04-30T06:54:10.400Z,65.51
2023-04-30T06:55:10.352Z,64.61
2023-04-30T06:56:10.362Z,64.37
2023-04-30T06:57:10.343Z,66.70
2023-04-30T06:58:10.324Z,62.96
2023-04-30T06:59:10.321Z,65.42
2023-04-30T07:00:10.326Z,64.25
2023-04-30T07:01:10.337Z,65.34
2023-04-30T07:02:10.295Z,65.53
2023-04-30T07:03:10.338Z,64.86
2023-04-30T07:04:10.273Z,66.48
2023-04-30T07:05:10.252Z,66.00
2023-04-30T07:06:10.269Z,67.40
2023-04-30T07:07:10.235Z,64.75
2023-04-30T07:08:10.256Z,64.57
2023-04-30T07:09:10.248Z,64.55
2023-04-30T07:10:10.198Z,65.98
2023-04-30T07:11:10.187Z,65.55
2023-04-30T07:12:10.178Z,65.09
2023-04-30T07:13:10.172Z,66.80
2023-04-30T07:14:10.196Z,64.93
2023-04-30T07:15:10.155Z,67.70
2023-04-30T07:16:10.183Z,65.48
2023-04-30T07:17:10.134Z,66.39
2023-04-30T07:18:10.310Z,66.96
2023-04-30T07:19:10.182Z,65.58
2023-04-30T07:20:10.213Z,65.22
2023-04-30T07:21:10.092Z,66.10
2023-04-30T07:22:10.086Z,65.48
2023-04-30T07:23:10.063Z,67.43
2023-04-30T07:24:10.066Z,65.45
2023-04-30T07:25:10.044Z,66.64
2023-04-30T07:26:10.040Z,66.76
2023-04-30T07:27:10.043Z,67.23
2023-04-30T07:28:10.030Z,68.14
2023-04-30T07:29:10.043Z,68.00
2023-04-30T07:30:10.013Z,66.84
2023-04-30T07:31:10.021Z,67.36
2023-04-30T07:32:09.984Z,67.04
2023-04-30T07:33:09.997Z,65.88
2023-04-30T07:34:09.976Z,66.86
2023-04-30T07:35:09.958Z,65.58
2023-04-30T07:36:10.021Z,65.29
2023-04-30T07:37:09.928Z,65.37
2023-04-30T07:38:09.947Z,67.14
2023-04-30T07:39:09.912Z,66.90
2023-04-30T07:40:09.902Z,64.70
2023-04-30T07:41:09.891Z,65.98
2023-04-30T07:42:09.879Z,66.69
2023-04-30T07:43:09.902Z,65.63
2023-04-30T07:44:09.860Z,65.68
2023-04-30T07:45:09.856Z,66.16
2023-04-30T07:46:09.882Z,65.41
2023-04-30T07:47:09.829Z,64.82
2023-04-30T07:48:10.012Z,65.75
2023-04-30T07:49:09.855Z,66.56
2023-04-30T07:50:09.799Z,66.97
2023-04-30T07:51:09.782Z,65.68
2023-04-30T07:52:09.905Z,65.55
2023-04-30T07:53:09.869Z,67.60
2023-04-30T07:54:09.758Z,64.29
2023-04-30T07:55:09.753Z,64.54
2023-04-30T07:56:09.733Z,65.52
2023-04-30T07:57:09.737Z,65.75
2023-04-30T07:58:09.717Z,66.47
2023-04-30T07:59:09.767Z,66.18
2023-04-30T08:00:09.715Z,66.25
2023-04-30T08:01:09.690Z,66.59
2023-04-30T08:02:09.720Z,65.41
2023-04-30T08:03:09.746Z,66.37
2023-04-30T08:04:09.805Z,63.65
2023-04-30T08:05:09.651Z,66.78
2023-04-30T08:06:09.738Z,66.42
2023-04-30T08:07:10.657Z,65.33
2023-04-30T08:08:09.645Z,65.97
2023-04-30T08:09:09.613Z,66.72
2023-04-30T08:10:09.620Z,68.00
2023-04-30T08:11:09.607Z,65.68
2023-04-30T08:12:09.571Z,66.06
2023-04-30T08:13:09.582Z,66.20
2023-04-30T08:14:09.556Z,66.92
2023-04-30T08:15:10.553Z,65.46
2023-04-30T08:16:09.552Z,66.41
2023-04-30T08:17:09.517Z,66.71
2023-04-30T08:18:09.596Z,66.47
2023-04-30T08:19:09.527Z,66.45
2023-04-30T08:20:09.543Z,66.08
2023-04-30T08:21:09.522Z,65.68
2023-04-30T08:22:09.470Z,65.05
2023-04-30T08:23:09.470Z,66.46
2023-04-30T08:24:09.455Z,66.76
2023-04-30T08:25:09.437Z,66.38
2023-04-30T08:26:09.459Z,66.63
2023-04-30T08:27:09.420Z,65.27
2023-04-30T08:28:09.429Z,65.52
2023-04-30T08:29:09.477Z,66.46
2023-04-30T08:30:09.430Z,64.31
2023-04-30T08:31:09.459Z,64.33
2023-04-30T08:32:09.434Z,65.94
2023-04-30T08:33:09.415Z,68.22
2023-04-30T08:34:09.356Z,67.38
2023-04-30T08:35:09.350Z,67.73
2023-04-30T08:36:09.335Z,68.22
2023-04-30T08:37:09.334Z,66.16
2023-04-30T08:38:09.328Z,65.44
2023-04-30T08:39:10.194Z,65.23
2023-04-30T08:40:09.315Z,64.18
2023-04-30T08:41:09.290Z,65.70
2023-04-30T08:42:09.282Z,66.86
2023-04-30T08:43:09.372Z,66.05
2023-04-30T08:44:09.258Z,66.12
2023-04-30T08:45:09.239Z,65.68
2023-04-30T08:46:09.271Z,66.36
2023-04-30T08:47:09.227Z,65.91
2023-04-30T08:48:09.267Z,65.92
2023-04-30T08:49:09.195Z,67.00
2023-04-30T08:50:09.190Z,66.08
2023-04-30T08:51:09.185Z,65.98
2023-04-30T08:52:09.169Z,67.52
2023-04-30T08:53:09.182Z,66.58
2023-04-30T08:54:09.150Z,67.57
2023-04-30T08:55:09.159Z,67.47
2023-04-30T08:56:09.143Z,67.51
2023-04-30T08:57:09.123Z,66.47
2023-04-30T08:58:09.126Z,65.79
2023-04-30T08:59:09.104Z,67.54
2023-04-30T09:00:09.103Z,65.54
2023-04-30T09:01:09.178Z,65.60
2023-04-30T09:02:09.117Z,66.64
2023-04-30T09:03:09.226Z,66.15
2023-04-30T09:04:09.145Z,66.55
2023-04-30T09:05:09.045Z,65.82
2023-04-30T09:06:09.185Z,65.08
2023-04-30T09:07:09.710Z,65.79
2023-04-30T09:08:09.069Z,64.41
2023-04-30T09:09:09.015Z,64.05
2023-04-30T09:10:08.997Z,64.79
2023-04-30T09:11:08.995Z,65.14
2023-04-30T09:12:08.968Z,64.99
2023-04-30T09:13:08.955Z,64.92
2023-04-30T09:14:08.973Z,65.66
2023-04-30T09:15:08.988Z,65.83
2023-04-30T09:16:08.952Z,63.54
2023-04-30T09:17:08.920Z,65.37
2023-04-30T09:18:08.983Z,63.81
2023-04-30T09:19:08.932Z,64.53
2023-04-30T09:20:08.905Z,65.37
2023-04-30T09:21:08.916Z,65.12
2023-04-30T09:22:09.043Z,64.72
2023-04-30T09:23:08.965Z,65.98
2023-04-30T09:24:08.856Z,65.09
2023-04-30T09:25:08.845Z,66.83
2023-04-30T09:26:08.834Z,64.20
2023-04-30T09:27:08.823Z,65.64
2023-04-30T09:28:08.826Z,64.82
2023-04-30T09:29:08.967Z,65.02
2023-04-30T09:30:08.800Z,63.80
2023-04-30T09:31:08.786Z,64.59
2023-04-30T09:32:08.771Z,63.82
2023-04-30T09:33:11.646Z,64.78
2023-04-30T09:34:09.751Z,64.31
2023-04-30T09:35:08.741Z,65.92
2023-04-30T09:36:08.740Z,64.24
2023-04-30T09:37:08.731Z,64.84
2023-04-30T09:38:08.717Z,63.80
2023-04-30T09:39:10.306Z,62.94
2023-04-30T09:40:08.730Z,63.18
2023-04-30T09:41:08.683Z,63.29
2023-04-30T09:42:08.671Z,63.66
2023-04-30T09:43:08.679Z,62.27
2023-04-30T09:44:08.746Z,65.60
2023-04-30T09:45:08.685Z,63.99
2023-04-30T09:46:08.691Z,61.71
2023-04-30T09:47:08.666Z,61.57
2023-04-30T09:48:16.475Z,62.10
2023-04-30T09:49:10.597Z,63.00
2023-04-30T09:50:08.636Z,65.31
2023-04-30T09:51:08.599Z,62.25
2023-04-30T09:52:08.560Z,62.18
2023-04-30T09:53:08.570Z,63.83
2023-04-30T09:54:08.538Z,62.45
2023-04-30T09:55:08.542Z,62.32
2023-04-30T09:56:08.568Z,63.78
2023-04-30T09:57:08.510Z,63.41
2023-04-30T09:58:08.527Z,62.57
2023-04-30T09:59:08.484Z,63.11
2023-04-30T10:00:08.491Z,62.12
2023-04-30T10:01:08.506Z,62.39
2023-04-30T10:02:08.522Z,61.19
2023-04-30T10:03:08.571Z,63.60
2023-04-30T10:04:08.481Z,63.35
2023-04-30T10:05:08.425Z,62.92
2023-04-30T10:08:20.301Z,63.37
2023-04-30T10:09:20.295Z,64.59
2023-04-30T10:10:20.250Z,63.79
2023-04-30T10:11:20.248Z,64.45
2023-04-30T10:12:20.237Z,63.81
2023-04-30T10:13:20.267Z,64.53
2023-04-30T10:14:21.337Z,64.51
2023-04-30T10:15:21.324Z,63.66
2023-04-30T10:16:21.365Z,62.97
2023-04-30T10:17:21.323Z,65.55
2023-04-30T10:18:21.325Z,65.64
2023-04-30T10:19:21.289Z,64.05
2023-04-30T10:20:21.313Z,64.10
2023-04-30T10:21:21.257Z,63.13
2023-04-30T10:22:21.255Z,63.72
2023-04-30T10:23:21.280Z,64.44
2023-04-30T10:24:21.245Z,63.97
2023-04-30T10:25:21.273Z,64.44
2023-04-30T10:26:21.220Z,64.08
2023-04-30T10:27:21.222Z,65.40
2023-04-30T10:28:21.197Z,64.47
2023-04-30T10:29:21.182Z,63.82
2023-04-30T10:30:21.206Z,63.04
2023-04-30T10:31:21.249Z,62.95
2023-04-30T10:32:21.238Z,62.66
2023-04-30T10:33:21.206Z,62.44
2023-04-30T10:34:21.132Z,62.20
2023-04-30T10:35:21.139Z,63.25
2023-04-30T10:36:21.122Z,63.45
2023-04-30T10:37:21.110Z,63.36
2023-04-30T10:38:21.103Z,65.26
2023-04-30T10:39:21.081Z,68.77
2023-04-30T10:40:21.082Z,66.46
2023-04-30T10:41:21.069Z,64.75
2023-04-30T10:42:21.074Z,64.01
2023-04-30T10:43:21.067Z,64.02
2023-04-30T10:44:22.057Z,64.11
2023-04-30T10:45:21.027Z,65.18
2023-04-30T10:46:21.052Z,65.10
2023-04-30T10:47:21.005Z,63.23
2023-04-30T10:48:21.024Z,65.29
2023-04-30T10:49:20.979Z,64.86
2023-04-30T10:50:20.973Z,63.27
2023-04-30T10:51:20.961Z,64.18
2023-04-30T10:52:20.955Z,64.02
2023-04-30T10:53:20.953Z,67.05
2023-04-30T10:54:20.933Z,63.96
2023-04-30T10:55:20.929Z,65.03
2023-04-30T10:56:20.917Z,65.48
2023-04-30T10:57:20.918Z,64.24
2023-04-30T10:58:20.898Z,64.50
2023-04-30T10:59:20.889Z,66.00
2023-04-30T11:00:20.884Z,66.48
2023-04-30T11:01:20.911Z,65.18
2023-04-30T11:02:21.918Z,66.24
2023-04-30T11:03:20.845Z,65.79
2023-04-30T11:04:20.862Z,66.04
2023-04-30T11:05:20.841Z,63.08
2023-04-30T11:06:20.875Z,64.57
2023-04-30T11:07:20.798Z,64.49
2023-04-30T11:08:20.805Z,65.72
2023-04-30T11:09:20.864Z,64.05
2023-04-30T11:10:20.788Z,63.99
2023-04-30T11:11:20.772Z,64.15
2023-04-30T11:12:20.751Z,64.68
2023-04-30T11:13:20.739Z,64.85
2023-04-30T11:14:20.743Z,64.40
2023-04-30T11:15:20.756Z,63.37
2023-04-30T11:16:20.823Z,64.14
2023-04-30T11:17:20.750Z,64.85
2023-04-30T11:18:20.694Z,65.81
2023-04-30T11:19:20.703Z,64.77
2023-04-30T11:20:20.734Z,63.89
2023-04-30T11:21:20.661Z,66.08
2023-04-30T11:22:20.688Z,63.80
2023-04-30T11:23:28.529Z,65.44
2023-04-30T11:24:22.686Z,64.11
2023-04-30T11:25:20.659Z,63.62
2023-04-30T11:26:20.638Z,65.20
2023-04-30T11:27:20.632Z,65.93
2023-04-30T11:28:20.613Z,65.01
2023-04-30T11:29:20.624Z,66.37
2023-04-30T11:30:20.583Z,64.70
2023-04-30T11:31:20.613Z,64.16
2023-04-30T11:32:20.661Z,64.16
2023-04-30T11:33:20.580Z,64.62
2023-04-30T11:34:20.604Z,65.60
2023-04-30T11:35:20.553Z,65.87
2023-04-30T11:36:20.523Z,64.32
2023-04-30T11:37:20.516Z,65.30
2023-04-30T11:38:21.524Z,64.47
2023-04-30T11:39:20.500Z,65.82
2023-04-30T11:40:20.529Z,64.67
2023-04-30T11:41:20.469Z,64.92
2023-04-30T11:42:20.522Z,64.24
2023-04-30T11:43:20.485Z,63.85
2023-04-30T11:44:20.444Z,66.00
2023-04-30T11:45:20.431Z,65.36
2023-04-30T11:46:20.434Z,64.37
2023-04-30T11:47:20.447Z,64.69
2023-04-30T11:48:20.461Z,61.41
2023-04-30T11:49:20.400Z,64.30
2023-04-30T11:50:20.377Z,62.76
2023-04-30T11:51:20.418Z,64.28
2023-04-30T11:52:20.370Z,64.86
2023-04-30T11:53:20.367Z,63.37
2023-04-30T11:54:20.357Z,64.48
2023-04-30T11:55:20.320Z,63.21
2023-04-30T11:56:20.304Z,63.62
2023-04-30T11:57:20.304Z,63.04
2023-04-30T11:58:20.319Z,62.74
2023-04-30T11:59:20.284Z,62.80
2023-04-30T12:00:20.282Z,64.27
2023-04-30T12:01:20.283Z,62.36
2023-04-30T12:02:20.300Z,61.44
2023-04-30T12:03:20.303Z,62.98
2023-04-30T12:04:20.277Z,64.36
2023-04-30T12:05:20.271Z,65.69
2023-04-30T12:06:20.233Z,66.04
2023-04-30T12:07:21.939Z,64.56
2023-04-30T12:08:21.205Z,64.83
2023-04-30T12:09:20.178Z,66.59
2023-04-30T12:10:20.171Z,63.08
2023-04-30T12:11:20.163Z,62.72
2023-04-30T12:12:20.154Z,62.50
2023-04-30T12:13:20.175Z,62.68
2023-04-30T12:14:20.134Z,64.57
2023-04-30T12:15:20.144Z,64.11
2023-04-30T12:16:20.144Z,64.36
2023-04-30T12:17:20.147Z,62.54
2023-04-30T12:18:20.114Z,64.05
2023-04-30T12:19:20.075Z,63.76
2023-04-30T12:20:20.099Z,63.94
2023-04-30T12:21:20.055Z,64.28
2023-04-30T12:22:20.049Z,63.87
2023-04-30T12:23:20.073Z,64.09
2023-04-30T12:24:20.040Z,64.09
2023-04-30T12:25:20.022Z,63.57
2023-04-30T12:26:19.996Z,62.99
2023-04-30T12:27:21.003Z,64.50
2023-04-30T12:28:20.000Z,63.78
2023-04-30T12:29:19.979Z,63.15
2023-04-30T12:30:19.964Z,61.79
2023-04-30T12:31:19.985Z,62.94
2023-04-30T12:32:20.157Z,62.61
2023-04-30T12:33:20.055Z,65.55
2023-04-30T12:34:19.971Z,62.39
2023-04-30T12:35:19.930Z,64.01
2023-04-30T12:36:19.913Z,62.93
2023-04-30T12:37:19.905Z,62.68
2023-04-30T12:38:19.912Z,63.93
2023-04-30T12:39:19.901Z,63.81
2023-04-30T12:40:19.895Z,63.26
2023-04-30T12:41:19.873Z,62.11
2023-04-30T12:42:19.877Z,62.93
2023-04-30T12:43:19.852Z,63.51
2023-04-30T12:44:20.848Z,63.30
2023-04-30T12:45:19.814Z,63.25
2023-04-30T12:46:19.848Z,62.92
2023-04-30T12:47:19.817Z,63.57
2023-04-30T12:48:19.816Z,62.03
2023-04-30T12:49:19.789Z,63.32
2023-04-30T12:50:19.768Z,63.21
2023-04-30T12:51:19.764Z,62.50
2023-04-30T12:52:19.742Z,66.51
2023-04-30T12:53:19.748Z,64.48
2023-04-30T12:54:19.727Z,62.77